<?xml version="1.0" encoding="UTF-8" standalone="no" ?>
<gpx xmlns="http://www.topografix.com/GPX/1/1" xmlns:xsi="http://www.w3.org/2001/XMLSchema-instance" xsi:schemaLocation="http://www.topografix.com/GPX/1/1 http://www.topografix.com/GPX/1/1/gpx.xsd" version="1.1" creator="VisuGPX - https://www.visugpx.com">
  <metadata>
    <name>15316604-montcel</name>
  </metadata>
  <trk>
    <name><![CDATA[15316604-montcel]]></name>
    <trkseg>
      <trkpt lat="46.01417" lon="3.06634">
        <ele>458</ele>
        <time>2022-08-09T09:13:26Z</time>
      </trkpt>
      <trkpt lat="46.0142" lon="3.06608">
        <ele>461</ele>
        <time>2022-08-09T09:13:50Z</time>
      </trkpt>
      <trkpt lat="46.01401" lon="3.06606">
        <ele>459</ele>
        <time>2022-08-09T09:14:16Z</time>
      </trkpt>
      <trkpt lat="46.01405" lon="3.0657">
        <ele>463</ele>
        <time>2022-08-09T09:14:50Z</time>
      </trkpt>
      <trkpt lat="46.01405" lon="3.06552">
        <ele>464</ele>
        <time>2022-08-09T09:15:06Z</time>
      </trkpt>
      <trkpt lat="46.01393" lon="3.0653">
        <ele>465</ele>
        <time>2022-08-09T09:15:32Z</time>
      </trkpt>
      <trkpt lat="46.01383" lon="3.06466">
        <ele>468</ele>
        <time>2022-08-09T09:16:33Z</time>
      </trkpt>
      <trkpt lat="46.01377" lon="3.06449">
        <ele>469</ele>
        <time>2022-08-09T09:16:51Z</time>
      </trkpt>
      <trkpt lat="46.01376" lon="3.06446">
        <ele>469</ele>
        <time>2022-08-09T09:16:54Z</time>
      </trkpt>
      <trkpt lat="46.0128" lon="3.06107">
        <ele>499</ele>
        <time>2022-08-09T09:22:33Z</time>
      </trkpt>
      <trkpt lat="46.01205" lon="3.05836">
        <ele>513</ele>
        <time>2022-08-09T09:27:03Z</time>
      </trkpt>
      <trkpt lat="46.01131" lon="3.0572">
        <ele>521</ele>
        <time>2022-08-09T09:29:29Z</time>
      </trkpt>
      <trkpt lat="46.01152" lon="3.05634">
        <ele>525</ele>
        <time>2022-08-09T09:30:54Z</time>
      </trkpt>
      <trkpt lat="46.01071" lon="3.05364">
        <ele>556</ele>
        <time>2022-08-09T09:35:27Z</time>
      </trkpt>
      <trkpt lat="46.01041" lon="3.05029">
        <ele>574</ele>
        <time>2022-08-09T09:40:40Z</time>
      </trkpt>
      <trkpt lat="46.01133" lon="3.04141">
        <ele>600</ele>
        <time>2022-08-09T09:54:32Z</time>
      </trkpt>
      <trkpt lat="46.01141" lon="3.04025">
        <ele>601</ele>
        <time>2022-08-09T09:56:20Z</time>
      </trkpt>
      <trkpt lat="46.01212" lon="3.03984">
        <ele>599</ele>
        <time>2022-08-09T09:58:02Z</time>
      </trkpt>
      <trkpt lat="46.01366" lon="3.03781">
        <ele>597</ele>
        <time>2022-08-09T10:02:40Z</time>
      </trkpt>
      <trkpt lat="46.01345" lon="3.03709">
        <ele>600</ele>
        <time>2022-08-09T10:03:53Z</time>
      </trkpt>
      <trkpt lat="46.01442" lon="3.03471">
        <ele>606</ele>
        <time>2022-08-09T10:08:09Z</time>
      </trkpt>
      <trkpt lat="46.01457" lon="3.03227">
        <ele>609</ele>
        <time>2022-08-09T10:11:56Z</time>
      </trkpt>
      <trkpt lat="46.01542" lon="3.02962">
        <ele>612</ele>
        <time>2022-08-09T10:16:26Z</time>
      </trkpt>
      <trkpt lat="46.01601" lon="3.0279">
        <ele>614</ele>
        <time>2022-08-09T10:19:24Z</time>
      </trkpt>
      <trkpt lat="46.01614" lon="3.02529">
        <ele>614</ele>
        <time>2022-08-09T10:23:26Z</time>
      </trkpt>
      <trkpt lat="46.01463" lon="3.02232">
        <ele>616</ele>
        <time>2022-08-09T10:29:07Z</time>
      </trkpt>
      <trkpt lat="46.01207" lon="3.02043">
        <ele>620</ele>
        <time>2022-08-09T10:35:31Z</time>
      </trkpt>
      <trkpt lat="46.01454" lon="3.0197">
        <ele>599</ele>
        <time>2022-08-09T10:41:08Z</time>
      </trkpt>
      <trkpt lat="46.01579" lon="3.0188">
        <ele>579</ele>
        <time>2022-08-09T10:44:14Z</time>
      </trkpt>
      <trkpt lat="46.01635" lon="3.0193">
        <ele>571</ele>
        <time>2022-08-09T10:45:42Z</time>
      </trkpt>
      <trkpt lat="46.01682" lon="3.01732">
        <ele>548</ele>
        <time>2022-08-09T10:48:56Z</time>
      </trkpt>
      <trkpt lat="46.01642" lon="3.01633">
        <ele>535</ele>
        <time>2022-08-09T10:50:42Z</time>
      </trkpt>
      <trkpt lat="46.01907" lon="3.01501">
        <ele>474</ele>
        <time>2022-08-09T10:56:57Z</time>
      </trkpt>
      <trkpt lat="46.01949" lon="3.01373">
        <ele>481</ele>
        <time>2022-08-09T10:59:08Z</time>
      </trkpt>
      <trkpt lat="46.01901" lon="3.01167">
        <ele>485</ele>
        <time>2022-08-09T11:02:29Z</time>
      </trkpt>
      <trkpt lat="46.0186" lon="3.0104">
        <ele>485</ele>
        <time>2022-08-09T11:04:39Z</time>
      </trkpt>
      <trkpt lat="46.01917" lon="3.00998">
        <ele>495</ele>
        <time>2022-08-09T11:06:04Z</time>
      </trkpt>
      <trkpt lat="46.01926" lon="3.0109">
        <ele>494</ele>
        <time>2022-08-09T11:07:30Z</time>
      </trkpt>
      <trkpt lat="46.02047" lon="3.01076">
        <ele>519</ele>
        <time>2022-08-09T11:10:12Z</time>
      </trkpt>
      <trkpt lat="46.02167" lon="3.01167">
        <ele>534</ele>
        <time>2022-08-09T11:13:13Z</time>
      </trkpt>
      <trkpt lat="46.0237" lon="3.01204">
        <ele>558</ele>
        <time>2022-08-09T11:17:46Z</time>
      </trkpt>
      <trkpt lat="46.02378" lon="3.01237">
        <ele>558</ele>
        <time>2022-08-09T11:18:19Z</time>
      </trkpt>
      <trkpt lat="46.02352" lon="3.0126">
        <ele>556</ele>
        <time>2022-08-09T11:19:00Z</time>
      </trkpt>
      <trkpt lat="46.02451" lon="3.01379">
        <ele>559</ele>
        <time>2022-08-09T11:21:52Z</time>
      </trkpt>
      <trkpt lat="46.02557" lon="3.01494">
        <ele>559</ele>
        <time>2022-08-09T11:24:49Z</time>
      </trkpt>
      <trkpt lat="46.02645" lon="3.01548">
        <ele>555</ele>
        <time>2022-08-09T11:26:56Z</time>
      </trkpt>
      <trkpt lat="46.0276" lon="3.0156">
        <ele>548</ele>
        <time>2022-08-09T11:29:30Z</time>
      </trkpt>
      <trkpt lat="46.02845" lon="3.01471">
        <ele>543</ele>
        <time>2022-08-09T11:31:50Z</time>
      </trkpt>
      <trkpt lat="46.02987" lon="3.01421">
        <ele>530</ele>
        <time>2022-08-09T11:35:06Z</time>
      </trkpt>
      <trkpt lat="46.03051" lon="3.01402">
        <ele>533</ele>
        <time>2022-08-09T11:36:33Z</time>
      </trkpt>
      <trkpt lat="46.0304" lon="3.01494">
        <ele>522</ele>
        <time>2022-08-09T11:37:59Z</time>
      </trkpt>
      <trkpt lat="46.03021" lon="3.0151">
        <ele>522</ele>
        <time>2022-08-09T11:38:29Z</time>
      </trkpt>
      <trkpt lat="46.03101" lon="3.01829">
        <ele>508</ele>
        <time>2022-08-09T11:43:43Z</time>
      </trkpt>
      <trkpt lat="46.03093" lon="3.01909">
        <ele>501</ele>
        <time>2022-08-09T11:44:58Z</time>
      </trkpt>
      <trkpt lat="46.03035" lon="3.01921">
        <ele>512</ele>
        <time>2022-08-09T11:46:16Z</time>
      </trkpt>
      <trkpt lat="46.03026" lon="3.02032">
        <ele>505</ele>
        <time>2022-08-09T11:47:59Z</time>
      </trkpt>
      <trkpt lat="46.02979" lon="3.02105">
        <ele>503</ele>
        <time>2022-08-09T11:49:32Z</time>
      </trkpt>
      <trkpt lat="46.02912" lon="3.02105">
        <ele>510</ele>
        <time>2022-08-09T11:51:01Z</time>
      </trkpt>
      <trkpt lat="46.02912" lon="3.02167">
        <ele>505</ele>
        <time>2022-08-09T11:51:59Z</time>
      </trkpt>
      <trkpt lat="46.02869" lon="3.02247">
        <ele>521</ele>
        <time>2022-08-09T11:53:32Z</time>
      </trkpt>
      <trkpt lat="46.02939" lon="3.02393">
        <ele>514</ele>
        <time>2022-08-09T11:56:17Z</time>
      </trkpt>
      <trkpt lat="46.02981" lon="3.02511">
        <ele>488</ele>
        <time>2022-08-09T11:58:20Z</time>
      </trkpt>
      <trkpt lat="46.02979" lon="3.02616">
        <ele>482</ele>
        <time>2022-08-09T11:59:57Z</time>
      </trkpt>
      <trkpt lat="46.03018" lon="3.02674">
        <ele>472</ele>
        <time>2022-08-09T12:01:12Z</time>
      </trkpt>
      <trkpt lat="46.02979" lon="3.02782">
        <ele>468</ele>
        <time>2022-08-09T12:03:04Z</time>
      </trkpt>
      <trkpt lat="46.02846" lon="3.02843">
        <ele>471</ele>
        <time>2022-08-09T12:06:11Z</time>
      </trkpt>
      <trkpt lat="46.02782" lon="3.03145">
        <ele>476</ele>
        <time>2022-08-09T12:11:03Z</time>
      </trkpt>
      <trkpt lat="46.0283" lon="3.03336">
        <ele>455</ele>
        <time>2022-08-09T12:14:11Z</time>
      </trkpt>
      <trkpt lat="46.02729" lon="3.0333">
        <ele>458</ele>
        <time>2022-08-09T12:16:26Z</time>
      </trkpt>
      <trkpt lat="46.02729" lon="3.0333">
        <ele>458</ele>
        <time>2022-08-09T12:16:26Z</time>
      </trkpt>
      <trkpt lat="46.02647" lon="3.03394">
        <ele>463</ele>
        <time>2022-08-09T12:18:31Z</time>
      </trkpt>
      <trkpt lat="46.0261" lon="3.03405">
        <ele>466</ele>
        <time>2022-08-09T12:19:21Z</time>
      </trkpt>
      <trkpt lat="46.02561" lon="3.03397">
        <ele>475</ele>
        <time>2022-08-09T12:20:27Z</time>
      </trkpt>
      <trkpt lat="46.02523" lon="3.03218">
        <ele>480</ele>
        <time>2022-08-09T12:23:21Z</time>
      </trkpt>
      <trkpt lat="46.02492" lon="3.03173">
        <ele>485</ele>
        <time>2022-08-09T12:24:19Z</time>
      </trkpt>
      <trkpt lat="46.02403" lon="3.03151">
        <ele>502</ele>
        <time>2022-08-09T12:26:20Z</time>
      </trkpt>
      <trkpt lat="46.02425" lon="3.0325">
        <ele>509</ele>
        <time>2022-08-09T12:27:56Z</time>
      </trkpt>
      <trkpt lat="46.02412" lon="3.03258">
        <ele>514</ele>
        <time>2022-08-09T12:28:15Z</time>
      </trkpt>
      <trkpt lat="46.02338" lon="3.03221">
        <ele>527</ele>
        <time>2022-08-09T12:30:00Z</time>
      </trkpt>
      <trkpt lat="46.02334" lon="3.03254">
        <ele>534</ele>
        <time>2022-08-09T12:30:31Z</time>
      </trkpt>
      <trkpt lat="46.02357" lon="3.03319">
        <ele>536</ele>
        <time>2022-08-09T12:31:38Z</time>
      </trkpt>
      <trkpt lat="46.02354" lon="3.03387">
        <ele>541</ele>
        <time>2022-08-09T12:32:41Z</time>
      </trkpt>
      <trkpt lat="46.02266" lon="3.03401">
        <ele>555</ele>
        <time>2022-08-09T12:34:39Z</time>
      </trkpt>
      <trkpt lat="46.02121" lon="3.0351">
        <ele>567</ele>
        <time>2022-08-09T12:38:18Z</time>
      </trkpt>
      <trkpt lat="46.01918" lon="3.03588">
        <ele>579</ele>
        <time>2022-08-09T12:42:58Z</time>
      </trkpt>
      <trkpt lat="46.01796" lon="3.03708">
        <ele>583</ele>
        <time>2022-08-09T12:46:15Z</time>
      </trkpt>
      <trkpt lat="46.01955" lon="3.03808">
        <ele>575</ele>
        <time>2022-08-09T12:50:07Z</time>
      </trkpt>
      <trkpt lat="46.02238" lon="3.04063">
        <ele>553</ele>
        <time>2022-08-09T12:57:32Z</time>
      </trkpt>
      <trkpt lat="46.02292" lon="3.04335">
        <ele>519</ele>
        <time>2022-08-09T13:01:54Z</time>
      </trkpt>
      <trkpt lat="46.02244" lon="3.04401">
        <ele>514</ele>
        <time>2022-08-09T13:03:23Z</time>
      </trkpt>
      <trkpt lat="46.02401" lon="3.04463">
        <ele>475</ele>
        <time>2022-08-09T13:07:00Z</time>
      </trkpt>
      <trkpt lat="46.02453" lon="3.0459">
        <ele>458</ele>
        <time>2022-08-09T13:09:17Z</time>
      </trkpt>
      <trkpt lat="46.02498" lon="3.0464">
        <ele>450</ele>
        <time>2022-08-09T13:10:33Z</time>
      </trkpt>
      <trkpt lat="46.02501" lon="3.04755">
        <ele>463</ele>
        <time>2022-08-09T13:12:19Z</time>
      </trkpt>
      <trkpt lat="46.02653" lon="3.05035">
        <ele>449</ele>
        <time>2022-08-09T13:17:49Z</time>
      </trkpt>
      <trkpt lat="46.02584" lon="3.05138">
        <ele>455</ele>
        <time>2022-08-09T13:20:01Z</time>
      </trkpt>
      <trkpt lat="46.0255" lon="3.05307">
        <ele>456</ele>
        <time>2022-08-09T13:22:44Z</time>
      </trkpt>
      <trkpt lat="46.02441" lon="3.0555">
        <ele>457</ele>
        <time>2022-08-09T13:27:12Z</time>
      </trkpt>
      <trkpt lat="46.0243" lon="3.05685">
        <ele>445</ele>
        <time>2022-08-09T13:29:18Z</time>
      </trkpt>
      <trkpt lat="46.02473" lon="3.05747">
        <ele>441</ele>
        <time>2022-08-09T13:30:40Z</time>
      </trkpt>
      <trkpt lat="46.02418" lon="3.05924">
        <ele>430</ele>
        <time>2022-08-09T13:33:39Z</time>
      </trkpt>
      <trkpt lat="46.02418" lon="3.06101">
        <ele>420</ele>
        <time>2022-08-09T13:36:23Z</time>
      </trkpt>
      <trkpt lat="46.02567" lon="3.06126">
        <ele>434</ele>
        <time>2022-08-09T13:39:43Z</time>
      </trkpt>
      <trkpt lat="46.0273" lon="3.06299">
        <ele>469</ele>
        <time>2022-08-09T13:44:14Z</time>
      </trkpt>
      <trkpt lat="46.02924" lon="3.06365">
        <ele>489</ele>
        <time>2022-08-09T13:48:40Z</time>
      </trkpt>
      <trkpt lat="46.02993" lon="3.06344">
        <ele>494</ele>
        <time>2022-08-09T13:50:14Z</time>
      </trkpt>
      <trkpt lat="46.03127" lon="3.0648">
        <ele>501</ele>
        <time>2022-08-09T13:53:52Z</time>
      </trkpt>
      <trkpt lat="46.02916" lon="3.06805">
        <ele>484</ele>
        <time>2022-08-09T14:00:45Z</time>
      </trkpt>
      <trkpt lat="46.02647" lon="3.06723">
        <ele>476</ele>
        <time>2022-08-09T14:06:52Z</time>
      </trkpt>
      <trkpt lat="46.02398" lon="3.06937">
        <ele>461</ele>
        <time>2022-08-09T14:13:19Z</time>
      </trkpt>
      <trkpt lat="46.02304" lon="3.07192">
        <ele>441</ele>
        <time>2022-08-09T14:17:46Z</time>
      </trkpt>
      <trkpt lat="46.02104" lon="3.07349">
        <ele>418</ele>
        <time>2022-08-09T14:22:50Z</time>
      </trkpt>
      <trkpt lat="46.01949" lon="3.07402">
        <ele>404</ele>
        <time>2022-08-09T14:26:23Z</time>
      </trkpt>
      <trkpt lat="46.01932" lon="3.07476">
        <ele>401</ele>
        <time>2022-08-09T14:27:35Z</time>
      </trkpt>
      <trkpt lat="46.01791" lon="3.07414">
        <ele>391</ele>
        <time>2022-08-09T14:30:52Z</time>
      </trkpt>
      <trkpt lat="46.01623" lon="3.07393">
        <ele>402</ele>
        <time>2022-08-09T14:34:37Z</time>
      </trkpt>
      <trkpt lat="46.01582" lon="3.07072">
        <ele>425</ele>
        <time>2022-08-09T14:39:39Z</time>
      </trkpt>
      <trkpt lat="46.01409" lon="3.06665">
        <ele>453</ele>
        <time>2022-08-09T14:47:01Z</time>
      </trkpt>
    </trkseg>
  </trk>
</gpx>